sensor_id;sensor_type;location;lat;lon;timestamp;temperature;humidity
48666;DHT22;34452;50.796;4.994;2023-05-29T00:02:10;14.50;99.90
48666;DHT22;34452;50.796;4.994;2023-05-29T00:04:36;14.50;99.90
48666;DHT22;34452;50.796;4.994;2023-05-29T00:07:02;14.50;99.90
48666;DHT22;34452;50.796;4.994;2023-05-29T00:09:28;14.40;99.90
48666;DHT22;34452;50.796;4.994;2023-05-29T00:11:55;14.40;99.90
48666;DHT22;34452;50.796;4.994;2023-05-29T00:14:21;14.30;99.90
48666;DHT22;34452;50.796;4.994;2023-05-29T00:16:49;14.30;99.90
48666;DHT22;34452;50.796;4.994;2023-05-29T00:19:15;14.30;99.90
48666;DHT22;34452;50.796;4.994;2023-05-29T00:21:43;14.20;99.90
48666;DHT22;34452;50.796;4.994;2023-05-29T00:24:08;14.20;99.90
48666;DHT22;34452;50.796;4.994;2023-05-29T00:26:34;14.20;99.90
48666;DHT22;34452;50.796;4.994;2023-05-29T00:29:01;14.20;99.90
48666;DHT22;34452;50.796;4.994;2023-05-29T00:31:26;14.10;99.90
48666;DHT22;34452;50.796;4.994;2023-05-29T00:33:53;14.10;99.90
48666;DHT22;34452;50.796;4.994;2023-05-29T00:36:19;14.10;99.90
48666;DHT22;34452;50.796;4.994;2023-05-29T00:38:45;14.10;99.90
48666;DHT22;34452;50.796;4.994;2023-05-29T00:41:29;14.00;99.90
48666;DHT22;34452;50.796;4.994;2023-05-29T00:43:55;14.00;99.90
48666;DHT22;34452;50.796;4.994;2023-05-29T00:46:21;13.90;99.90
48666;DHT22;34452;50.796;4.994;2023-05-29T00:48:47;13.90;99.90
48666;DHT22;34452;50.796;4.994;2023-05-29T00:51:13;13.90;99.90
48666;DHT22;34452;50.796;4.994;2023-05-29T00:53:41;13.90;99.90
48666;DHT22;34452;50.796;4.994;2023-05-29T00:56:08;13.80;99.90
48666;DHT22;34452;50.796;4.994;2023-05-29T00:58:34;13.70;99.90
48666;DHT22;34452;50.796;4.994;2023-05-29T01:01:00;13.70;99.90
48666;DHT22;34452;50.796;4.994;2023-05-29T01:03:26;13.70;99.90
48666;DHT22;34452;50.796;4.994;2023-05-29T01:05:53;13.70;99.90
48666;DHT22;34452;50.796;4.994;2023-05-29T01:08:19;13.60;99.90
48666;DHT22;34452;50.796;4.994;2023-05-29T01:10:45;13.60;99.90
48666;DHT22;34452;50.796;4.994;2023-05-29T01:13:19;13.50;99.90
48666;DHT22;34452;50.796;4.994;2023-05-29T01:16:07;13.50;99.90
48666;DHT22;34452;50.796;4.994;2023-05-29T01:18:40;13.50;99.90
48666;DHT22;34452;50.796;4.994;2023-05-29T01:21:37;13.50;99.90
48666;DHT22;34452;50.796;4.994;2023-05-29T01:24:11;13.40;99.90
48666;DHT22;34452;50.796;4.994;2023-05-29T01:29:37;13.40;99.90
48666;DHT22;34452;50.796;4.994;2023-05-29T01:32:04;13.40;99.90
48666;DHT22;34452;50.796;4.994;2023-05-29T01:34:30;13.40;99.90
48666;DHT22;34452;50.796;4.994;2023-05-29T01:36:56;13.30;99.90
48666;DHT22;34452;50.796;4.994;2023-05-29T01:39:22;13.30;99.90
48666;DHT22;34452;50.796;4.994;2023-05-29T01:41:48;13.20;99.90
48666;DHT22;34452;50.796;4.994;2023-05-29T01:44:15;13.20;99.90
48666;DHT22;34452;50.796;4.994;2023-05-29T01:46:43;13.20;99.90
48666;DHT22;34452;50.796;4.994;2023-05-29T01:49:10;13.10;99.90
48666;DHT22;34452;50.796;4.994;2023-05-29T01:51:38;13.10;99.90
48666;DHT22;34452;50.796;4.994;2023-05-29T01:54:04;13.10;99.90
48666;DHT22;34452;50.796;4.994;2023-05-29T01:56:31;13.00;99.90
48666;DHT22;34452;50.796;4.994;2023-05-29T01:58:58;13.00;99.90
48666;DHT22;34452;50.796;4.994;2023-05-29T02:01:24;12.90;99.90
48666;DHT22;34452;50.796;4.994;2023-05-29T02:03:50;12.90;99.90
48666;DHT22;34452;50.796;4.994;2023-05-29T02:06:17;12.90;99.90
48666;DHT22;34452;50.796;4.994;2023-05-29T02:08:43;12.80;99.90
48666;DHT22;34452;50.796;4.994;2023-05-29T02:11:09;12.80;99.90
48666;DHT22;34452;50.796;4.994;2023-05-29T02:13:35;12.80;99.90
48666;DHT22;34452;50.796;4.994;2023-05-29T02:16:00;12.70;99.90
48666;DHT22;34452;50.796;4.994;2023-05-29T02:18:26;12.70;99.90
48666;DHT22;34452;50.796;4.994;2023-05-29T02:20:52;12.60;99.90
48666;DHT22;34452;50.796;4.994;2023-05-29T02:23:18;12.60;99.90
48666;DHT22;34452;50.796;4.994;2023-05-29T02:25:44;12.60;99.90
48666;DHT22;34452;50.796;4.994;2023-05-29T02:28:10;12.60;99.90
48666;DHT22;34452;50.796;4.994;2023-05-29T02:30:36;12.60;99.90
48666;DHT22;34452;50.796;4.994;2023-05-29T02:33:02;12.50;99.90
48666;DHT22;34452;50.796;4.994;2023-05-29T02:35:28;12.50;99.90
48666;DHT22;34452;50.796;4.994;2023-05-29T02:37:53;12.40;99.90
48666;DHT22;34452;50.796;4.994;2023-05-29T02:40:19;12.40;99.90
48666;DHT22;34452;50.796;4.994;2023-05-29T02:42:46;12.30;99.90
48666;DHT22;34452;50.796;4.994;2023-05-29T02:45:12;12.30;99.90
48666;DHT22;34452;50.796;4.994;2023-05-29T02:47:38;12.20;99.90
48666;DHT22;34452;50.796;4.994;2023-05-29T02:50:04;12.20;99.90
48666;DHT22;34452;50.796;4.994;2023-05-29T02:52:31;12.10;99.90
48666;DHT22;34452;50.796;4.994;2023-05-29T02:54:57;12.10;99.90
48666;DHT22;34452;50.796;4.994;2023-05-29T02:57:24;12.10;99.90
48666;DHT22;34452;50.796;4.994;2023-05-29T02:59:50;12.10;99.90
48666;DHT22;34452;50.796;4.994;2023-05-29T03:02:15;12.00;99.90
48666;DHT22;34452;50.796;4.994;2023-05-29T03:04:41;12.00;99.90
48666;DHT22;34452;50.796;4.994;2023-05-29T03:07:07;12.00;99.90
48666;DHT22;34452;50.796;4.994;2023-05-29T03:09:35;12.00;99.90
48666;DHT22;34452;50.796;4.994;2023-05-29T03:12:00;11.90;99.90
48666;DHT22;34452;50.796;4.994;2023-05-29T03:14:27;11.90;99.90
48666;DHT22;34452;50.796;4.994;2023-05-29T03:16:54;11.90;99.90
48666;DHT22;34452;50.796;4.994;2023-05-29T03:19:20;11.80;99.90
48666;DHT22;34452;50.796;4.994;2023-05-29T03:21:46;11.80;99.90
48666;DHT22;34452;50.796;4.994;2023-05-29T03:24:12;11.80;99.90
48666;DHT22;34452;50.796;4.994;2023-05-29T03:26:39;11.70;99.90
48666;DHT22;34452;50.796;4.994;2023-05-29T03:29:06;11.80;99.90
48666;DHT22;34452;50.796;4.994;2023-05-29T03:31:32;11.70;99.90
48666;DHT22;34452;50.796;4.994;2023-05-29T03:33:59;11.70;99.90
48666;DHT22;34452;50.796;4.994;2023-05-29T03:36:24;11.70;99.90
48666;DHT22;34452;50.796;4.994;2023-05-29T03:38:50;11.60;99.90
48666;DHT22;34452;50.796;4.994;2023-05-29T03:41:16;11.60;99.90
48666;DHT22;34452;50.796;4.994;2023-05-29T03:43:41;11.60;99.90
48666;DHT22;34452;50.796;4.994;2023-05-29T03:46:07;11.60;99.90
48666;DHT22;34452;50.796;4.994;2023-05-29T03:48:33;11.40;99.90
48666;DHT22;34452;50.796;4.994;2023-05-29T03:50:58;11.40;99.90
48666;DHT22;34452;50.796;4.994;2023-05-29T03:53:24;11.40;99.90
48666;DHT22;34452;50.796;4.994;2023-05-29T03:55:50;11.40;99.90
48666;DHT22;34452;50.796;4.994;2023-05-29T03:58:16;11.40;99.90
48666;DHT22;34452;50.796;4.994;2023-05-29T04:00:41;11.30;99.90
48666;DHT22;34452;50.796;4.994;2023-05-29T04:03:08;11.30;99.90
48666;DHT22;34452;50.796;4.994;2023-05-29T04:05:34;11.30;99.90
48666;DHT22;34452;50.796;4.994;2023-05-29T04:08:00;11.20;99.90
48666;DHT22;34452;50.796;4.994;2023-05-29T04:10:26;11.20;99.90
48666;DHT22;34452;50.796;4.994;2023-05-29T04:12:52;11.20;99.90
48666;DHT22;34452;50.796;4.994;2023-05-29T04:15:17;11.30;99.90
48666;DHT22;34452;50.796;4.994;2023-05-29T04:17:43;11.30;99.90
48666;DHT22;34452;50.796;4.994;2023-05-29T04:20:09;11.30;99.90
48666;DHT22;34452;50.796;4.994;2023-05-29T04:22:36;11.30;99.90
48666;DHT22;34452;50.796;4.994;2023-05-29T04:25:02;11.20;99.90
48666;DHT22;34452;50.796;4.994;2023-05-29T04:27:29;11.20;99.90
48666;DHT22;34452;50.796;4.994;2023-05-29T04:29:55;11.30;99.90
48666;DHT22;34452;50.796;4.994;2023-05-29T04:32:21;11.20;99.90
48666;DHT22;34452;50.796;4.994;2023-05-29T04:34:47;11.20;99.90
48666;DHT22;34452;50.796;4.994;2023-05-29T04:37:13;11.30;99.90
48666;DHT22;34452;50.796;4.994;2023-05-29T04:39:39;11.20;99.90
48666;DHT22;34452;50.796;4.994;2023-05-29T04:42:05;11.20;99.90
48666;DHT22;34452;50.796;4.994;2023-05-29T04:44:31;11.30;99.90
48666;DHT22;34452;50.796;4.994;2023-05-29T04:46:57;11.30;99.90
48666;DHT22;34452;50.796;4.994;2023-05-29T04:49:23;11.30;99.90
48666;DHT22;34452;50.796;4.994;2023-05-29T04:51:49;11.30;99.90
48666;DHT22;34452;50.796;4.994;2023-05-29T04:54:18;11.30;99.90
48666;DHT22;34452;50.796;4.994;2023-05-29T04:56:45;11.30;99.90
48666;DHT22;34452;50.796;4.994;2023-05-29T04:59:11;11.30;99.90
48666;DHT22;34452;50.796;4.994;2023-05-29T05:01:37;11.30;99.90
48666;DHT22;34452;50.796;4.994;2023-05-29T05:04:03;11.30;99.90
48666;DHT22;34452;50.796;4.994;2023-05-29T05:06:29;11.30;99.90
48666;DHT22;34452;50.796;4.994;2023-05-29T05:08:55;11.40;99.90
48666;DHT22;34452;50.796;4.994;2023-05-29T05:11:23;11.30;99.90
48666;DHT22;34452;50.796;4.994;2023-05-29T05:13:49;11.40;99.90
48666;DHT22;34452;50.796;4.994;2023-05-29T05:16:15;11.50;99.90
48666;DHT22;34452;50.796;4.994;2023-05-29T05:18:43;11.50;99.90
48666;DHT22;34452;50.796;4.994;2023-05-29T05:21:08;11.50;99.90
48666;DHT22;34452;50.796;4.994;2023-05-29T05:23:34;11.60;99.90
48666;DHT22;34452;50.796;4.994;2023-05-29T05:26:00;11.50;99.90
48666;DHT22;34452;50.796;4.994;2023-05-29T05:28:26;11.60;99.90
48666;DHT22;34452;50.796;4.994;2023-05-29T05:30:51;11.60;99.90
48666;DHT22;34452;50.796;4.994;2023-05-29T05:33:17;11.50;99.90
48666;DHT22;34452;50.796;4.994;2023-05-29T05:35:43;11.60;99.90
48666;DHT22;34452;50.796;4.994;2023-05-29T05:38:08;11.60;99.90
48666;DHT22;34452;50.796;4.994;2023-05-29T05:40:34;11.60;99.90
48666;DHT22;34452;50.796;4.994;2023-05-29T05:43:00;11.70;99.90
48666;DHT22;34452;50.796;4.994;2023-05-29T05:45:26;11.70;99.90
48666;DHT22;34452;50.796;4.994;2023-05-29T05:47:51;11.80;99.90
48666;DHT22;34452;50.796;4.994;2023-05-29T05:50:17;11.90;99.90
48666;DHT22;34452;50.796;4.994;2023-05-29T05:52:43;11.80;99.90
48666;DHT22;34452;50.796;4.994;2023-05-29T05:55:08;11.80;99.90
48666;DHT22;34452;50.796;4.994;2023-05-29T05:57:34;11.80;99.90
48666;DHT22;34452;50.796;4.994;2023-05-29T06:00:01;11.90;99.90
48666;DHT22;34452;50.796;4.994;2023-05-29T06:02:28;12.00;99.90
48666;DHT22;34452;50.796;4.994;2023-05-29T06:04:54;11.90;99.90
48666;DHT22;34452;50.796;4.994;2023-05-29T06:07:19;12.00;99.90
48666;DHT22;34452;50.796;4.994;2023-05-29T06:09:45;12.10;99.90
48666;DHT22;34452;50.796;4.994;2023-05-29T06:12:11;12.00;99.90
48666;DHT22;34452;50.796;4.994;2023-05-29T06:14:37;12.00;99.90
48666;DHT22;34452;50.796;4.994;2023-05-29T06:17:03;12.00;99.90
48666;DHT22;34452;50.796;4.994;2023-05-29T06:19:29;12.10;99.90
48666;DHT22;34452;50.796;4.994;2023-05-29T06:21:55;12.10;99.90
48666;DHT22;34452;50.796;4.994;2023-05-29T06:24:21;12.10;99.90
48666;DHT22;34452;50.796;4.994;2023-05-29T06:26:46;12.10;99.90
48666;DHT22;34452;50.796;4.994;2023-05-29T06:29:12;12.20;99.90
48666;DHT22;34452;50.796;4.994;2023-05-29T06:31:38;12.30;99.90
48666;DHT22;34452;50.796;4.994;2023-05-29T06:34:03;12.30;99.90
48666;DHT22;34452;50.796;4.994;2023-05-29T06:36:29;12.40;99.90
48666;DHT22;34452;50.796;4.994;2023-05-29T06:38:56;12.40;99.90
48666;DHT22;34452;50.796;4.994;2023-05-29T06:41:22;12.40;99.90
48666;DHT22;34452;50.796;4.994;2023-05-29T06:43:47;12.30;99.90
48666;DHT22;34452;50.796;4.994;2023-05-29T06:46:14;12.50;99.90
48666;DHT22;34452;50.796;4.994;2023-05-29T06:48:39;12.60;99.90
48666;DHT22;34452;50.796;4.994;2023-05-29T06:51:05;12.70;99.90
48666;DHT22;34452;50.796;4.994;2023-05-29T06:53:52;12.80;99.90
48666;DHT22;34452;50.796;4.994;2023-05-29T06:56:18;12.70;99.90
48666;DHT22;34452;50.796;4.994;2023-05-29T06:58:43;12.80;99.90
48666;DHT22;34452;50.796;4.994;2023-05-29T07:01:11;12.90;99.90
48666;DHT22;34452;50.796;4.994;2023-05-29T07:03:36;12.90;99.90
48666;DHT22;34452;50.796;4.994;2023-05-29T07:06:03;12.90;99.90
48666;DHT22;34452;50.796;4.994;2023-05-29T07:08:28;13.00;99.90
48666;DHT22;34452;50.796;4.994;2023-05-29T07:10:55;13.10;99.90
48666;DHT22;34452;50.796;4.994;2023-05-29T07:13:20;13.10;99.90
48666;DHT22;34452;50.796;4.994;2023-05-29T07:15:48;13.10;99.90
48666;DHT22;34452;50.796;4.994;2023-05-29T07:18:13;13.20;99.90
48666;DHT22;34452;50.796;4.994;2023-05-29T07:20:39;13.20;99.90
48666;DHT22;34452;50.796;4.994;2023-05-29T07:23:05;13.20;99.90
48666;DHT22;34452;50.796;4.994;2023-05-29T07:25:31;13.20;99.90
48666;DHT22;34452;50.796;4.994;2023-05-29T07:27:57;13.20;99.90
48666;DHT22;34452;50.796;4.994;2023-05-29T07:30:23;13.30;99.90
48666;DHT22;34452;50.796;4.994;2023-05-29T07:32:49;13.50;99.90
48666;DHT22;34452;50.796;4.994;2023-05-29T07:35:15;13.60;99.90
48666;DHT22;34452;50.796;4.994;2023-05-29T07:37:41;13.70;99.90
48666;DHT22;34452;50.796;4.994;2023-05-29T07:40:06;13.70;99.90
48666;DHT22;34452;50.796;4.994;2023-05-29T07:42:33;13.70;99.90
48666;DHT22;34452;50.796;4.994;2023-05-29T07:44:59;13.80;99.90
48666;DHT22;34452;50.796;4.994;2023-05-29T07:47:25;13.90;99.90
48666;DHT22;34452;50.796;4.994;2023-05-29T07:49:50;14.00;99.90
48666;DHT22;34452;50.796;4.994;2023-05-29T07:52:17;14.00;99.90
48666;DHT22;34452;50.796;4.994;2023-05-29T07:54:43;14.10;99.90
48666;DHT22;34452;50.796;4.994;2023-05-29T07:57:09;14.20;99.90
48666;DHT22;34452;50.796;4.994;2023-05-29T07:59:36;14.10;99.90
48666;DHT22;34452;50.796;4.994;2023-05-29T08:02:02;14.30;99.90
48666;DHT22;34452;50.796;4.994;2023-05-29T08:04:29;14.30;99.90
48666;DHT22;34452;50.796;4.994;2023-05-29T08:06:56;14.30;99.90
48666;DHT22;34452;50.796;4.994;2023-05-29T08:09:21;14.40;99.90
48666;DHT22;34452;50.796;4.994;2023-05-29T08:11:47;14.50;99.90
48666;DHT22;34452;50.796;4.994;2023-05-29T08:14:14;14.50;99.90
48666;DHT22;34452;50.796;4.994;2023-05-29T08:16:41;14.60;99.90
48666;DHT22;34452;50.796;4.994;2023-05-29T08:19:07;14.60;99.90
48666;DHT22;34452;50.796;4.994;2023-05-29T08:21:32;14.70;99.90
48666;DHT22;34452;50.796;4.994;2023-05-29T08:23:59;14.80;99.90
48666;DHT22;34452;50.796;4.994;2023-05-29T08:26:25;14.80;99.90
48666;DHT22;34452;50.796;4.994;2023-05-29T08:28:51;14.80;99.90
48666;DHT22;34452;50.796;4.994;2023-05-29T08:31:17;14.80;99.90
48666;DHT22;34452;50.796;4.994;2023-05-29T08:33:42;14.80;99.90
48666;DHT22;34452;50.796;4.994;2023-05-29T08:36:08;14.80;99.90
48666;DHT22;34452;50.796;4.994;2023-05-29T08:38:34;14.80;99.90
48666;DHT22;34452;50.796;4.994;2023-05-29T08:41:00;14.90;99.90
48666;DHT22;34452;50.796;4.994;2023-05-29T08:43:31;14.90;99.90
48666;DHT22;34452;50.796;4.994;2023-05-29T08:46:00;15.00;99.90
48666;DHT22;34452;50.796;4.994;2023-05-29T08:48:28;15.10;99.90
48666;DHT22;34452;50.796;4.994;2023-05-29T08:50:55;15.10;99.90
48666;DHT22;34452;50.796;4.994;2023-05-29T08:53:22;15.30;99.90
48666;DHT22;34452;50.796;4.994;2023-05-29T08:55:48;15.30;99.90
48666;DHT22;34452;50.796;4.994;2023-05-29T08:58:17;15.30;99.90
48666;DHT22;34452;50.796;4.994;2023-05-29T09:00:46;15.40;99.90
48666;DHT22;34452;50.796;4.994;2023-05-29T09:03:12;15.50;99.90
48666;DHT22;34452;50.796;4.994;2023-05-29T09:05:39;15.60;99.90
48666;DHT22;34452;50.796;4.994;2023-05-29T09:08:08;15.70;99.90
48666;DHT22;34452;50.796;4.994;2023-05-29T09:10:35;15.70;99.90
48666;DHT22;34452;50.796;4.994;2023-05-29T09:13:01;15.70;99.90
48666;DHT22;34452;50.796;4.994;2023-05-29T09:15:27;15.70;99.90
48666;DHT22;34452;50.796;4.994;2023-05-29T09:17:55;15.80;99.90
48666;DHT22;34452;50.796;4.994;2023-05-29T09:20:21;15.90;99.90
48666;DHT22;34452;50.796;4.994;2023-05-29T09:23:08;16.00;99.90
48666;DHT22;34452;50.796;4.994;2023-05-29T09:25:39;16.10;99.90
48666;DHT22;34452;50.796;4.994;2023-05-29T09:28:07;16.10;99.90
48666;DHT22;34452;50.796;4.994;2023-05-29T09:33:18;16.30;99.90
48666;DHT22;34452;50.796;4.994;2023-05-29T09:35:46;16.20;99.90
48666;DHT22;34452;50.796;4.994;2023-05-29T09:38:25;16.30;99.90
48666;DHT22;34452;50.796;4.994;2023-05-29T09:40:50;16.50;99.90
48666;DHT22;34452;50.796;4.994;2023-05-29T09:43:18;16.40;99.90
48666;DHT22;34452;50.796;4.994;2023-05-29T09:45:46;16.30;99.90
48666;DHT22;34452;50.796;4.994;2023-05-29T09:48:14;16.40;99.90
48666;DHT22;34452;50.796;4.994;2023-05-29T09:50:40;16.50;99.90
48666;DHT22;34452;50.796;4.994;2023-05-29T09:53:28;16.60;99.90
48666;DHT22;34452;50.796;4.994;2023-05-29T09:55:55;16.60;99.90
48666;DHT22;34452;50.796;4.994;2023-05-29T09:58:22;16.60;99.90
48666;DHT22;34452;50.796;4.994;2023-05-29T10:00:49;16.80;99.90
48666;DHT22;34452;50.796;4.994;2023-05-29T10:03:16;16.80;99.90
48666;DHT22;34452;50.796;4.994;2023-05-29T10:05:46;16.90;99.90
48666;DHT22;34452;50.796;4.994;2023-05-29T10:08:14;16.90;99.90
48666;DHT22;34452;50.796;4.994;2023-05-29T10:10:59;16.90;99.90
48666;DHT22;34452;50.796;4.994;2023-05-29T10:13:39;17.10;99.90
48666;DHT22;34452;50.796;4.994;2023-05-29T10:16:08;17.20;99.90
48666;DHT22;34452;50.796;4.994;2023-05-29T10:18:39;17.00;99.90
48666;DHT22;34452;50.796;4.994;2023-05-29T10:21:07;17.00;99.90
48666;DHT22;34452;50.796;4.994;2023-05-29T10:23:38;17.20;99.90
48666;DHT22;34452;50.796;4.994;2023-05-29T10:26:11;17.30;99.90
48666;DHT22;34452;50.796;4.994;2023-05-29T10:28:43;17.40;99.90
48666;DHT22;34452;50.796;4.994;2023-05-29T10:31:16;17.40;99.90
48666;DHT22;34452;50.796;4.994;2023-05-29T10:36:40;17.50;99.90
48666;DHT22;34452;50.796;4.994;2023-05-29T10:39:08;17.60;99.20
48666;DHT22;34452;50.796;4.994;2023-05-29T10:41:34;17.50;99.90
48666;DHT22;34452;50.796;4.994;2023-05-29T10:44:37;17.80;99.90
48666;DHT22;34452;50.796;4.994;2023-05-29T10:47:05;17.80;98.60
48666;DHT22;34452;50.796;4.994;2023-05-29T10:49:31;17.80;99.90
48666;DHT22;34452;50.796;4.994;2023-05-29T10:51:58;17.80;98.40
48666;DHT22;34452;50.796;4.994;2023-05-29T10:54:26;17.80;99.70
48666;DHT22;34452;50.796;4.994;2023-05-29T10:59:36;17.90;96.40
48666;DHT22;34452;50.796;4.994;2023-05-29T11:02:04;18.10;98.00
48666;DHT22;34452;50.796;4.994;2023-05-29T11:04:31;18.20;97.60
48666;DHT22;34452;50.796;4.994;2023-05-29T11:06:58;18.20;97.60
48666;DHT22;34452;50.796;4.994;2023-05-29T11:09:41;18.30;98.20
48666;DHT22;34452;50.796;4.994;2023-05-29T11:15:08;18.40;96.50
48666;DHT22;34452;50.796;4.994;2023-05-29T11:17:54;18.50;97.20
48666;DHT22;34452;50.796;4.994;2023-05-29T11:23:22;18.60;93.60
48666;DHT22;34452;50.796;4.994;2023-05-29T11:25:51;18.60;94.30
48666;DHT22;34452;50.796;4.994;2023-05-29T11:28:16;18.80;94.20
48666;DHT22;34452;50.796;4.994;2023-05-29T11:30:44;19.00;95.80
48666;DHT22;34452;50.796;4.994;2023-05-29T11:33:24;19.30;96.20
48666;DHT22;34452;50.796;4.994;2023-05-29T11:35:56;19.70;94.70
48666;DHT22;34452;50.796;4.994;2023-05-29T11:38:23;19.80;92.00
48666;DHT22;34452;50.796;4.994;2023-05-29T11:40:50;19.60;90.90
48666;DHT22;34452;50.796;4.994;2023-05-29T11:43:16;19.50;91.20
48666;DHT22;34452;50.796;4.994;2023-05-29T11:45:41;19.40;91.70
48666;DHT22;34452;50.796;4.994;2023-05-29T11:48:08;19.40;91.60
48666;DHT22;34452;50.796;4.994;2023-05-29T11:50:33;19.60;92.50
48666;DHT22;34452;50.796;4.994;2023-05-29T11:52:59;19.70;92.10
48666;DHT22;34452;50.796;4.994;2023-05-29T11:55:26;19.80;91.40
48666;DHT22;34452;50.796;4.994;2023-05-29T11:58:11;19.90;89.50
48666;DHT22;34452;50.796;4.994;2023-05-29T12:00:38;19.90;90.30
48666;DHT22;34452;50.796;4.994;2023-05-29T12:03:05;19.90;89.30
48666;DHT22;34452;50.796;4.994;2023-05-29T12:05:44;20.00;87.80
48666;DHT22;34452;50.796;4.994;2023-05-29T12:08:10;20.00;91.40
48666;DHT22;34452;50.796;4.994;2023-05-29T12:10:36;20.10;85.90
48666;DHT22;34452;50.796;4.994;2023-05-29T12:13:02;20.10;89.40
48666;DHT22;34452;50.796;4.994;2023-05-29T12:15:28;20.10;85.50
48666;DHT22;34452;50.796;4.994;2023-05-29T12:17:55;19.90;90.10
48666;DHT22;34452;50.796;4.994;2023-05-29T12:20:24;19.90;90.70
48666;DHT22;34452;50.796;4.994;2023-05-29T12:22:52;20.10;90.30
48666;DHT22;34452;50.796;4.994;2023-05-29T12:25:19;20.20;90.30
48666;DHT22;34452;50.796;4.994;2023-05-29T12:27:47;20.20;89.10
48666;DHT22;34452;50.796;4.994;2023-05-29T12:30:14;20.30;84.60
48666;DHT22;34452;50.796;4.994;2023-05-29T12:32:42;20.20;84.30
48666;DHT22;34452;50.796;4.994;2023-05-29T12:35:20;20.20;83.40
48666;DHT22;34452;50.796;4.994;2023-05-29T12:40:34;20.30;81.00
48666;DHT22;34452;50.796;4.994;2023-05-29T12:43:03;20.20;82.10
48666;DHT22;34452;50.796;4.994;2023-05-29T12:45:32;20.00;84.20
48666;DHT22;34452;50.796;4.994;2023-05-29T12:48:01;20.20;87.20
48666;DHT22;34452;50.796;4.994;2023-05-29T12:50:39;20.50;87.00
48666;DHT22;34452;50.796;4.994;2023-05-29T12:53:09;20.50;80.60
48666;DHT22;34452;50.796;4.994;2023-05-29T12:55:37;20.50;79.80
48666;DHT22;34452;50.796;4.994;2023-05-29T12:58:07;20.70;88.60
48666;DHT22;34452;50.796;4.994;2023-05-29T13:00:35;20.80;84.20
48666;DHT22;34452;50.796;4.994;2023-05-29T13:03:02;20.60;83.70
48666;DHT22;34452;50.796;4.994;2023-05-29T13:05:27;20.70;84.10
48666;DHT22;34452;50.796;4.994;2023-05-29T13:07:53;20.80;86.80
48666;DHT22;34452;50.796;4.994;2023-05-29T13:10:20;20.90;85.80
48666;DHT22;34452;50.796;4.994;2023-05-29T13:12:47;20.80;80.30
48666;DHT22;34452;50.796;4.994;2023-05-29T13:15:14;20.70;80.80
48666;DHT22;34452;50.796;4.994;2023-05-29T13:17:40;20.70;79.30
48666;DHT22;34452;50.796;4.994;2023-05-29T13:20:07;20.80;81.90
48666;DHT22;34452;50.796;4.994;2023-05-29T13:22:33;21.00;82.30
48666;DHT22;34452;50.796;4.994;2023-05-29T13:24:59;20.70;76.40
48666;DHT22;34452;50.796;4.994;2023-05-29T13:27:26;20.50;77.00
48666;DHT22;34452;50.796;4.994;2023-05-29T13:29:52;20.60;77.80
48666;DHT22;34452;50.796;4.994;2023-05-29T13:32:18;20.50;76.60
48666;DHT22;34452;50.796;4.994;2023-05-29T13:34:45;20.40;74.90
48666;DHT22;34452;50.796;4.994;2023-05-29T13:37:11;20.30;74.90
48666;DHT22;34452;50.796;4.994;2023-05-29T13:39:36;20.20;74.40
48666;DHT22;34452;50.796;4.994;2023-05-29T13:42:02;20.30;74.60
48666;DHT22;34452;50.796;4.994;2023-05-29T13:44:28;20.30;73.40
48666;DHT22;34452;50.796;4.994;2023-05-29T13:46:53;20.20;73.50
48666;DHT22;34452;50.796;4.994;2023-05-29T13:49:19;20.20;78.50
48666;DHT22;34452;50.796;4.994;2023-05-29T13:51:45;20.40;79.70
48666;DHT22;34452;50.796;4.994;2023-05-29T13:54:12;20.40;76.90
48666;DHT22;34452;50.796;4.994;2023-05-29T13:56:38;20.40;76.40
48666;DHT22;34452;50.796;4.994;2023-05-29T13:59:04;20.40;74.70
48666;DHT22;34452;50.796;4.994;2023-05-29T14:01:32;20.30;74.60
48666;DHT22;34452;50.796;4.994;2023-05-29T14:03:59;20.20;74.50
48666;DHT22;34452;50.796;4.994;2023-05-29T14:06:25;20.30;74.50
48666;DHT22;34452;50.796;4.994;2023-05-29T14:08:51;20.40;73.70
48666;DHT22;34452;50.796;4.994;2023-05-29T14:11:17;20.30;73.70
48666;DHT22;34452;50.796;4.994;2023-05-29T14:13:42;20.40;74.20
48666;DHT22;34452;50.796;4.994;2023-05-29T14:16:08;20.40;72.30
48666;DHT22;34452;50.796;4.994;2023-05-29T14:18:34;20.40;71.10
48666;DHT22;34452;50.796;4.994;2023-05-29T14:21:00;20.50;74.40
48666;DHT22;34452;50.796;4.994;2023-05-29T14:23:25;20.70;77.20
48666;DHT22;34452;50.796;4.994;2023-05-29T14:25:51;20.60;74.70
48666;DHT22;34452;50.796;4.994;2023-05-29T14:28:17;20.80;75.90
48666;DHT22;34452;50.796;4.994;2023-05-29T14:30:43;20.80;70.40
48666;DHT22;34452;50.796;4.994;2023-05-29T14:33:09;20.80;70.00
48666;DHT22;34452;50.796;4.994;2023-05-29T14:35:35;20.80;71.20
48666;DHT22;34452;50.796;4.994;2023-05-29T14:38:01;20.80;70.30
48666;DHT22;34452;50.796;4.994;2023-05-29T14:40:27;21.00;72.10
48666;DHT22;34452;50.796;4.994;2023-05-29T14:42:53;21.00;74.50
48666;DHT22;34452;50.796;4.994;2023-05-29T14:45:19;21.00;72.60
48666;DHT22;34452;50.796;4.994;2023-05-29T14:47:44;21.30;71.50
48666;DHT22;34452;50.796;4.994;2023-05-29T14:50:11;21.20;66.80
48666;DHT22;34452;50.796;4.994;2023-05-29T14:52:37;21.00;71.70
48666;DHT22;34452;50.796;4.994;2023-05-29T14:55:04;20.90;69.20
48666;DHT22;34452;50.796;4.994;2023-05-29T14:57:31;20.80;68.20
48666;DHT22;34452;50.796;4.994;2023-05-29T14:59:59;20.90;73.50
48666;DHT22;34452;50.796;4.994;2023-05-29T15:02:24;20.90;70.60
48666;DHT22;34452;50.796;4.994;2023-05-29T15:04:50;20.80;67.30
48666;DHT22;34452;50.796;4.994;2023-05-29T15:07:16;20.90;72.30
48666;DHT22;34452;50.796;4.994;2023-05-29T15:09:42;21.00;70.00
48666;DHT22;34452;50.796;4.994;2023-05-29T15:12:08;21.10;71.60
48666;DHT22;34452;50.796;4.994;2023-05-29T15:14:35;20.90;67.20
48666;DHT22;34452;50.796;4.994;2023-05-29T15:17:01;21.00;67.70
48666;DHT22;34452;50.796;4.994;2023-05-29T15:19:27;20.90;68.20
48666;DHT22;34452;50.796;4.994;2023-05-29T15:21:53;20.90;66.00
48666;DHT22;34452;50.796;4.994;2023-05-29T15:24:18;20.90;67.30
48666;DHT22;34452;50.796;4.994;2023-05-29T15:26:44;20.80;65.50
48666;DHT22;34452;50.796;4.994;2023-05-29T15:29:10;20.70;66.60
48666;DHT22;34452;50.796;4.994;2023-05-29T15:31:36;20.60;64.40
48666;DHT22;34452;50.796;4.994;2023-05-29T15:34:02;20.40;67.00
48666;DHT22;34452;50.796;4.994;2023-05-29T15:36:28;20.50;67.50
48666;DHT22;34452;50.796;4.994;2023-05-29T15:38:54;20.60;66.70
48666;DHT22;34452;50.796;4.994;2023-05-29T15:41:20;20.60;69.60
48666;DHT22;34452;50.796;4.994;2023-05-29T15:43:46;20.80;68.70
48666;DHT22;34452;50.796;4.994;2023-05-29T15:46:12;20.80;67.30
48666;DHT22;34452;50.796;4.994;2023-05-29T15:48:38;20.80;66.80
48666;DHT22;34452;50.796;4.994;2023-05-29T15:51:03;20.90;65.50